Bellefountain, Indiana
Current Conditions -  °F | °C
As of 2:53 AM on Friday 24 Oct 2014 (Local Time) from KMIE Reporting Station
Clear Clear  
Wind Chill: 41°   Ceiling: Unl
Heat Index: 41°   Visibility: 10mi
Dew Point: 38°   Wind: 3mph
Humidity: 89%   Direction: 220°SW
Pressure: 30.1"   Gusts: NA
Location:  40.4312°N, 85.0058°W
Report Text: KMIE 240653Z AUTO 22003KT 10SM CLR 05/03 A3010 RMK AO2 SLP193 T00500033
Loading
Personal Weather Stations






























Interactive Weather Map New forecast layout! Learn more

10-Day Weather Forecast

Advertisements
Track Severe Weather on mobile